createdAt,value
2022-11-18T00:00:13.834Z,10.10
2022-11-18T00:00:46.778Z,10.10
2022-11-18T00:01:21.108Z,10.10
2022-11-18T00:01:52.997Z,10.10
2022-11-18T00:02:25.917Z,10.10
2022-11-18T00:02:57.884Z,10.10
2022-11-18T00:03:31.109Z,10.10
2022-11-18T00:04:04.097Z,10.10
2022-11-18T00:04:35.937Z,10.10
2022-11-18T00:05:07.947Z,10.10
2022-11-18T00:05:40.773Z,10.10
2022-11-18T00:06:13.921Z,10.10
2022-11-18T00:06:46.685Z,10.10
2022-11-18T00:07:19.005Z,10.10
2022-11-18T00:07:50.884Z,10.10
2022-11-18T00:08:24.383Z,10.10
2022-11-18T00:08:58.199Z,10.10
2022-11-18T00:09:30.065Z,10.10
2022-11-18T00:10:02.885Z,10.10
2022-11-18T00:10:37.626Z,10.20
2022-11-18T00:11:11.402Z,10.20
2022-11-18T00:12:01.905Z,10.20
2022-11-18T00:12:52.460Z,10.20
2022-11-18T00:13:42.984Z,10.20
2022-11-18T00:14:19.359Z,10.20
2022-11-18T00:14:52.167Z,10.20
2022-11-18T00:15:28.941Z,10.20
2022-11-18T00:16:04.285Z,10.20
2022-11-18T00:16:37.255Z,10.10
2022-11-18T00:17:09.037Z,10.20
2022-11-18T00:17:41.051Z,10.20
2022-11-18T00:18:13.827Z,10.20
2022-11-18T00:18:46.982Z,10.20
2022-11-18T00:19:20.002Z,10.20
2022-11-18T00:19:53.061Z,10.20
2022-11-18T00:20:25.003Z,10.20
2022-11-18T00:21:02.067Z,10.10
2022-11-18T00:21:35.244Z,10.10
2022-11-18T00:22:10.193Z,10.10
2022-11-18T00:22:43.045Z,10.10
2022-11-18T00:23:14.889Z,10.10
2022-11-18T00:23:48.942Z,10.10
2022-11-18T00:24:22.428Z,10.10
2022-11-18T00:24:54.351Z,10.10
2022-11-18T00:25:26.248Z,10.10
2022-11-18T00:26:03.475Z,10.10
2022-11-18T00:26:36.243Z,10.20
2022-11-18T00:27:09.158Z,10.20
2022-11-18T00:27:41.043Z,10.20
2022-11-18T00:28:12.950Z,10.20
2022-11-18T00:28:44.909Z,10.20
2022-11-18T00:29:18.298Z,10.20
2022-11-18T00:29:50.430Z,10.20
2022-11-18T00:30:22.434Z,10.30
2022-11-18T00:31:00.979Z,10.30
2022-11-18T00:31:32.999Z,10.30
2022-11-18T00:32:06.166Z,10.30
2022-11-18T00:32:39.151Z,10.30
2022-11-18T00:33:11.171Z,10.20
2022-11-18T00:33:43.105Z,10.20
2022-11-18T00:34:19.198Z,10.20
2022-11-18T00:34:51.301Z,10.20
2022-11-18T00:35:23.163Z,10.20
2022-11-18T00:35:56.358Z,10.20
2022-11-18T00:36:29.188Z,10.30
2022-11-18T00:37:01.137Z,10.30
2022-11-18T00:37:34.916Z,10.30
2022-11-18T00:38:06.752Z,10.30
2022-11-18T00:38:38.812Z,10.30
2022-11-18T00:39:12.597Z,10.20
2022-11-18T00:39:44.416Z,10.20
2022-11-18T00:40:16.912Z,10.20
2022-11-18T00:40:49.729Z,10.20
2022-11-18T00:41:21.604Z,10.20
2022-11-18T00:42:12.112Z,10.20
2022-11-18T00:42:53.669Z,10.20
2022-11-18T00:43:25.488Z,10.20
2022-11-18T00:43:58.287Z,10.20
2022-11-18T00:44:30.483Z,10.20
2022-11-18T00:45:02.302Z,10.20
2022-11-18T00:45:35.139Z,10.20
2022-11-18T00:46:09.135Z,10.20
2022-11-18T00:46:41.609Z,10.20
2022-11-18T00:47:14.401Z,10.20
2022-11-18T00:47:46.411Z,10.20
2022-11-18T00:48:21.620Z,10.20
2022-11-18T00:48:54.377Z,10.20
2022-11-18T00:49:27.566Z,10.20
2022-11-18T00:49:59.455Z,10.20
2022-11-18T00:50:33.400Z,10.20
2022-11-18T00:51:10.791Z,10.20
2022-11-18T00:51:42.721Z,10.10
2022-11-18T00:52:15.545Z,10.20
2022-11-18T00:52:47.762Z,10.20
2022-11-18T00:53:20.848Z,10.20
2022-11-18T00:53:54.809Z,10.20
2022-11-18T00:54:27.656Z,10.20
2022-11-18T00:54:59.608Z,10.20
2022-11-18T00:55:31.713Z,10.20
2022-11-18T00:56:04.959Z,10.20
2022-11-18T00:56:36.873Z,10.20
2022-11-18T00:57:08.781Z,10.10
2022-11-18T00:57:41.560Z,10.10
2022-11-18T00:58:14.359Z,10.10
2022-11-18T00:58:46.206Z,10.10
2022-11-18T00:59:19.310Z,10.10
2022-11-18T00:59:51.386Z,10.10
2022-11-18T01:00:23.420Z,10.10
2022-11-18T01:00:56.242Z,10.10
2022-11-18T01:01:28.175Z,10.10
2022-11-18T01:02:00.044Z,10.10
2022-11-18T01:02:32.911Z,10.10
2022-11-18T01:03:04.796Z,10.10
2022-11-18T01:03:36.622Z,10.10
2022-11-18T01:04:08.422Z,10.20
2022-11-18T01:04:42.627Z,10.10
2022-11-18T01:05:14.476Z,10.20
2022-11-18T01:05:46.374Z,10.20
2022-11-18T01:06:19.415Z,10.20
2022-11-18T01:06:51.360Z,10.10
2022-11-18T01:07:23.249Z,10.10
2022-11-18T01:07:56.117Z,10.10
2022-11-18T01:08:28.032Z,10.10
2022-11-18T01:08:59.980Z,10.00
2022-11-18T01:09:32.960Z,10.00
2022-11-18T01:10:05.492Z,10.00
2022-11-18T01:10:38.717Z,10.00
2022-11-18T01:11:29.397Z,9.90
2022-11-18T01:12:19.736Z,9.90
2022-11-18T01:13:09.980Z,9.90
2022-11-18T01:13:42.871Z,9.80
2022-11-18T01:14:14.838Z,9.70
2022-11-18T01:14:46.676Z,9.70
2022-11-18T01:15:19.588Z,9.70
2022-11-18T01:15:53.437Z,9.70
2022-11-18T01:16:26.697Z,9.70
2022-11-18T01:16:59.612Z,9.70
2022-11-18T01:17:31.546Z,9.70
2022-11-18T01:18:03.615Z,9.70
2022-11-18T01:18:36.477Z,9.70
2022-11-18T01:19:08.517Z,9.70
2022-11-18T01:19:41.839Z,9.70
2022-11-18T01:20:15.191Z,9.70
2022-11-18T01:20:48.062Z,9.80
2022-11-18T01:21:20.677Z,9.80
2022-11-18T01:21:53.955Z,9.80
2022-11-18T01:22:25.853Z,9.80
2022-11-18T01:22:57.741Z,9.80
2022-11-18T01:23:30.710Z,9.80
2022-11-18T01:24:02.580Z,9.80
2022-11-18T01:24:34.743Z,9.80
2022-11-18T01:25:08.192Z,9.90
2022-11-18T01:25:42.339Z,9.80
2022-11-18T01:26:16.221Z,9.80
2022-11-18T01:26:49.210Z,9.80
2022-11-18T01:27:21.099Z,9.80
2022-11-18T01:27:53.147Z,9.80
2022-11-18T01:28:25.971Z,9.80
2022-11-18T01:28:57.849Z,9.80
2022-11-18T01:29:30.093Z,9.90
2022-11-18T01:30:03.176Z,9.90
2022-11-18T01:30:35.792Z,9.90
2022-11-18T01:31:10.502Z,9.90
2022-11-18T01:32:01.890Z,9.90
2022-11-18T01:32:35.355Z,9.90
2022-11-18T01:33:08.904Z,9.90
2022-11-18T01:33:41.201Z,9.90
2022-11-18T01:34:13.148Z,9.90
2022-11-18T01:34:46.457Z,9.90
2022-11-18T01:35:19.418Z,10.00
2022-11-18T01:35:51.901Z,10.00
2022-11-18T01:36:25.053Z,10.00
2022-11-18T01:36:58.607Z,10.00
2022-11-18T01:37:30.479Z,10.10
2022-11-18T01:38:02.479Z,10.10
2022-11-18T01:38:35.246Z,10.10
2022-11-18T01:39:07.113Z,10.20
2022-11-18T01:39:39.986Z,10.10
2022-11-18T01:40:12.376Z,10.10
2022-11-18T01:40:44.245Z,10.10
2022-11-18T01:41:18.130Z,10.20
2022-11-18T01:41:50.052Z,10.10
2022-11-18T01:42:21.918Z,10.10
2022-11-18T01:42:54.801Z,10.10
2022-11-18T01:43:26.697Z,10.20
2022-11-18T01:44:00.333Z,10.20
2022-11-18T01:44:59.686Z,10.10
2022-11-18T01:45:34.798Z,10.10
2022-11-18T01:46:06.689Z,10.20
2022-11-18T01:46:39.543Z,10.10
2022-11-18T01:47:11.523Z,10.40
2022-11-18T01:47:47.903Z,10.20
2022-11-18T01:48:24.553Z,10.20
2022-11-18T01:49:00.194Z,10.30
2022-11-18T01:49:32.126Z,10.30
2022-11-18T01:50:06.756Z,10.30
2022-11-18T01:50:47.883Z,10.30
2022-11-18T01:51:24.877Z,10.30
2022-11-18T01:51:58.531Z,10.30
2022-11-18T01:52:32.587Z,10.30
2022-11-18T01:53:09.030Z,10.30
2022-11-18T01:53:46.957Z,10.20
2022-11-18T01:54:23.077Z,10.20
2022-11-18T01:55:00.349Z,10.20
2022-11-18T01:55:35.684Z,10.10
2022-11-18T01:56:12.133Z,10.20
2022-11-18T01:56:49.549Z,10.20
2022-11-18T01:57:23.010Z,10.20
2022-11-18T01:58:09.876Z,10.20
2022-11-18T01:58:46.744Z,10.20
2022-11-18T01:59:22.243Z,10.20
2022-11-18T01:59:57.371Z,10.20
2022-11-18T02:00:30.513Z,10.20
2022-11-18T02:01:03.594Z,10.20
2022-11-18T02:01:35.803Z,10.10
2022-11-18T02:02:12.320Z,10.10
2022-11-18T02:02:45.059Z,10.10
2022-11-18T02:03:18.591Z,10.00
2022-11-18T02:03:51.613Z,10.00
2022-11-18T02:04:25.468Z,10.00
2022-11-18T02:04:58.827Z,10.00
2022-11-18T02:05:36.017Z,9.90
2022-11-18T02:06:09.762Z,9.90
2022-11-18T02:06:42.500Z,9.90
2022-11-18T02:07:15.710Z,10.10
2022-11-18T02:07:48.822Z,9.90
2022-11-18T02:08:22.652Z,9.90
2022-11-18T02:08:56.012Z,9.90
2022-11-18T02:09:27.914Z,9.90
2022-11-18T02:10:05.217Z,9.90
2022-11-18T02:10:37.862Z,9.90
2022-11-18T02:11:33.091Z,9.90
2022-11-18T02:12:06.177Z,9.90
2022-11-18T02:12:38.391Z,9.90
2022-11-18T02:13:12.037Z,9.80
2022-11-18T02:13:43.892Z,9.80
2022-11-18T02:14:17.108Z,9.80
2022-11-18T02:14:51.324Z,9.80
2022-11-18T02:15:35.031Z,9.80
2022-11-18T02:16:11.268Z,9.80
2022-11-18T02:16:58.229Z,9.80
2022-11-18T02:17:41.114Z,9.80
2022-11-18T02:18:22.402Z,9.80
2022-11-18T02:19:00.297Z,9.80
2022-11-18T02:20:04.826Z,9.80
2022-11-18T02:20:41.940Z,9.80
2022-11-18T02:21:24.363Z,9.80
2022-11-18T02:22:08.612Z,9.80
2022-11-18T02:23:23.975Z,9.80
2022-11-18T02:24:14.181Z,9.80
2022-11-18T02:24:56.785Z,9.80
2022-11-18T02:25:38.415Z,9.80
2022-11-18T02:26:44.646Z,9.80
2022-11-18T02:27:42.298Z,9.80
2022-11-18T02:28:37.900Z,9.80
2022-11-18T02:29:14.895Z,9.70
2022-11-18T02:29:55.286Z,9.80
2022-11-18T02:30:30.725Z,9.70
2022-11-18T02:31:07.086Z,9.70
2022-11-18T02:31:47.041Z,9.70
2022-11-18T02:32:25.640Z,9.80
2022-11-18T02:33:04.305Z,9.80
2022-11-18T02:33:42.594Z,9.80
2022-11-18T02:34:22.490Z,9.90
2022-11-18T02:35:03.116Z,9.90
2022-11-18T02:35:41.814Z,9.90
2022-11-18T02:36:19.891Z,9.90
2022-11-18T02:36:57.038Z,9.90
2022-11-18T02:37:34.867Z,9.90
2022-11-18T02:38:12.313Z,9.90
2022-11-18T02:38:49.118Z,9.90
2022-11-18T02:39:29.996Z,9.90
2022-11-18T02:40:07.760Z,9.90
2022-11-18T02:40:44.061Z,9.90
2022-11-18T02:41:21.051Z,9.90
2022-11-18T02:41:55.894Z,9.90
2022-11-18T02:42:31.174Z,9.90
2022-11-18T02:43:08.084Z,9.90
2022-11-18T02:43:44.270Z,10.00
2022-11-18T02:44:19.761Z,9.90
2022-11-18T02:44:57.578Z,10.00
2022-11-18T02:45:31.666Z,10.00
2022-11-18T02:46:08.592Z,10.00
2022-11-18T02:46:43.495Z,10.00
2022-11-18T02:47:17.141Z,10.10
2022-11-18T02:47:51.249Z,10.10
2022-11-18T02:48:25.999Z,10.10
2022-11-18T02:48:58.032Z,10.10
2022-11-18T02:49:34.806Z,10.10
2022-11-18T02:50:12.236Z,10.10
2022-11-18T02:50:46.737Z,10.10
2022-11-18T02:51:25.230Z,10.10
2022-11-18T02:51:59.879Z,10.10
2022-11-18T02:52:34.783Z,10.10
2022-11-18T02:53:09.487Z,10.10
2022-11-18T02:53:43.436Z,10.10
2022-11-18T02:54:16.758Z,10.10
2022-11-18T02:54:50.891Z,10.10
2022-11-18T02:55:26.888Z,10.10
2022-11-18T02:56:00.134Z,10.20
2022-11-18T02:56:33.592Z,10.20
2022-11-18T02:57:06.968Z,10.20
2022-11-18T02:57:41.613Z,10.20
2022-11-18T02:58:16.267Z,10.20
2022-11-18T02:58:49.160Z,10.20
2022-11-18T02:59:22.457Z,10.20
2022-11-18T02:59:54.287Z,10.20
2022-11-18T03:00:27.264Z,10.20
2022-11-18T03:01:01.127Z,10.20
2022-11-18T03:01:35.950Z,10.20
2022-11-18T03:02:15.385Z,10.30
2022-11-18T03:02:49.789Z,10.30
2022-11-18T03:03:26.293Z,10.30
2022-11-18T03:03:59.076Z,10.30
2022-11-18T03:04:32.185Z,10.30
2022-11-18T03:05:05.202Z,10.30
2022-11-18T03:05:47.426Z,10.30
2022-11-18T03:06:27.460Z,10.30
2022-11-18T03:07:07.995Z,10.30
2022-11-18T03:07:45.426Z,10.30
2022-11-18T03:08:25.750Z,10.20
2022-11-18T03:09:06.760Z,10.20
2022-11-18T03:09:43.435Z,10.30
2022-11-18T03:10:15.956Z,10.30
2022-11-18T03:10:53.587Z,10.30
2022-11-18T03:11:30.274Z,10.30
2022-11-18T03:12:12.103Z,10.20
2022-11-18T03:12:53.448Z,10.20
2022-11-18T03:13:31.094Z,10.20
2022-11-18T03:14:19.789Z,10.10
2022-11-18T03:15:04.105Z,10.10
2022-11-18T03:15:45.540Z,10.10
2022-11-18T03:16:23.704Z,10.00
2022-11-18T03:17:01.186Z,10.00
2022-11-18T03:17:45.248Z,10.00
2022-11-18T03:18:24.995Z,10.00
2022-11-18T03:19:05.488Z,10.00
2022-11-18T03:19:52.094Z,10.00
2022-11-18T03:20:29.116Z,10.00
2022-11-18T03:21:08.149Z,10.00
2022-11-18T03:21:43.879Z,9.90
2022-11-18T03:22:22.830Z,9.90
2022-11-18T03:22:57.929Z,9.90
2022-11-18T03:23:36.321Z,9.90
2022-11-18T03:24:15.978Z,9.80
2022-11-18T03:24:55.164Z,9.80
2022-11-18T03:25:33.735Z,9.80
2022-11-18T03:26:10.748Z,9.80
2022-11-18T03:26:48.893Z,9.70
2022-11-18T03:27:27.605Z,9.70
2022-11-18T03:28:07.132Z,9.60
2022-11-18T03:28:42.642Z,9.60
2022-11-18T03:29:21.209Z,9.60
2022-11-18T03:30:00.588Z,9.60
2022-11-18T03:30:34.923Z,9.50
2022-11-18T03:31:12.144Z,9.40
2022-11-18T03:31:47.433Z,9.40
2022-11-18T03:32:23.795Z,9.40
2022-11-18T03:33:01.142Z,9.40
2022-11-18T03:33:38.225Z,9.40
2022-11-18T03:34:15.137Z,9.40
2022-11-18T03:34:50.941Z,9.30
2022-11-18T03:35:27.073Z,9.30
2022-11-18T03:36:03.412Z,9.40
2022-11-18T03:36:38.691Z,9.40
2022-11-18T03:37:14.509Z,9.30
2022-11-18T03:37:51.105Z,9.30
2022-11-18T03:38:27.888Z,9.30
2022-11-18T03:39:03.628Z,9.30
2022-11-18T03:39:40.633Z,9.30
2022-11-18T03:40:17.485Z,9.20
2022-11-18T03:40:55.127Z,9.20
2022-11-18T03:41:31.733Z,9.20
2022-11-18T03:42:10.479Z,9.10
2022-11-18T03:42:45.055Z,9.10
2022-11-18T03:43:21.077Z,9.10
2022-11-18T03:43:58.861Z,9.10
2022-11-18T03:44:34.602Z,9.10
2022-11-18T03:45:12.489Z,9.00
2022-11-18T03:45:49.753Z,9.00
2022-11-18T03:46:26.350Z,9.00
2022-11-18T03:47:04.912Z,9.00
2022-11-18T03:47:42.288Z,9.00
2022-11-18T03:48:16.641Z,9.00
2022-11-18T03:48:51.843Z,9.00
2022-11-18T03:49:31.313Z,9.00
2022-11-18T03:50:12.573Z,9.00
2022-11-18T03:50:48.631Z,9.00
2022-11-18T03:51:24.847Z,9.00
2022-11-18T03:52:02.825Z,9.00
2022-11-18T03:52:37.512Z,9.00
2022-11-18T03:53:12.031Z,9.00
2022-11-18T03:53:49.043Z,9.10
2022-11-18T03:54:24.560Z,9.00
2022-11-18T03:55:01.719Z,9.00
2022-11-18T03:55:36.893Z,9.00
2022-11-18T03:56:17.158Z,9.00
2022-11-18T03:56:57.484Z,9.00
2022-11-18T03:57:35.095Z,9.00
2022-11-18T03:58:13.747Z,9.00
2022-11-18T03:58:53.171Z,9.00
2022-11-18T03:59:31.989Z,9.00
2022-11-18T04:00:10.461Z,9.00
2022-11-18T04:00:46.105Z,9.00
2022-11-18T04:01:25.134Z,9.00
2022-11-18T04:02:04.266Z,9.00
2022-11-18T04:02:37.145Z,9.00
2022-11-18T04:03:10.020Z,8.90
2022-11-18T04:03:42.420Z,9.00
2022-11-18T04:04:15.923Z,9.00
2022-11-18T04:04:50.199Z,9.00
2022-11-18T04:05:22.195Z,9.00
2022-11-18T04:06:04.264Z,8.90
2022-11-18T04:06:42.364Z,8.90
2022-11-18T04:07:22.553Z,8.90
2022-11-18T04:07:58.538Z,8.90
2022-11-18T04:08:36.816Z,8.90
2022-11-18T04:09:13.548Z,8.90
2022-11-18T04:09:51.740Z,8.90
2022-11-18T04:10:29.496Z,8.90
2022-11-18T04:11:09.064Z,8.80
2022-11-18T04:12:03.343Z,8.80
2022-11-18T04:12:42.077Z,8.80
2022-11-18T04:13:19.817Z,8.80
2022-11-18T04:13:51.791Z,8.70
2022-11-18T04:14:23.743Z,8.70
2022-11-18T04:14:56.642Z,8.70
2022-11-18T04:15:31.178Z,8.70
2022-11-18T04:16:03.140Z,8.60
2022-11-18T04:16:41.143Z,8.70
2022-11-18T04:17:15.146Z,8.60
2022-11-18T04:17:46.989Z,8.50
2022-11-18T04:18:19.833Z,8.50
2022-11-18T04:18:51.693Z,8.50
2022-11-18T04:19:23.844Z,8.60
2022-11-18T04:19:56.113Z,8.60
2022-11-18T04:20:31.599Z,8.50
2022-11-18T04:21:03.573Z,8.50
2022-11-18T04:21:35.456Z,8.50
2022-11-18T04:22:09.394Z,8.50
2022-11-18T04:22:41.233Z,8.50
2022-11-18T04:23:13.223Z,8.50
2022-11-18T04:23:46.009Z,8.50
2022-11-18T04:24:17.855Z,8.50
2022-11-18T04:24:49.668Z,8.60
2022-11-18T04:25:24.282Z,8.60
2022-11-18T04:25:56.187Z,8.50
2022-11-18T04:26:28.305Z,8.60
2022-11-18T04:27:00.266Z,8.60
2022-11-18T04:27:33.145Z,8.60
2022-11-18T04:28:05.476Z,8.60
2022-11-18T04:28:37.442Z,8.60
2022-11-18T04:29:09.358Z,8.70
2022-11-18T04:29:42.329Z,8.70
2022-11-18T04:30:14.333Z,8.70
2022-11-18T04:30:47.493Z,8.70
2022-11-18T04:31:19.382Z,8.70
2022-11-18T04:31:52.193Z,8.70
2022-11-18T04:32:24.085Z,8.70
2022-11-18T04:32:55.962Z,8.70
2022-11-18T04:33:27.806Z,8.70
2022-11-18T04:34:00.705Z,8.70
2022-11-18T04:34:32.951Z,8.70
2022-11-18T04:35:05.414Z,8.70
2022-11-18T04:35:38.224Z,8.70
2022-11-18T04:36:10.182Z,8.70
2022-11-18T04:36:42.062Z,8.70
2022-11-18T04:37:14.888Z,8.70
2022-11-18T04:37:46.765Z,8.70
2022-11-18T04:38:21.981Z,8.70
2022-11-18T04:38:54.151Z,8.70
2022-11-18T04:39:26.978Z,8.70
2022-11-18T04:39:58.886Z,8.80
2022-11-18T04:40:30.766Z,8.80
2022-11-18T04:41:02.711Z,8.80
2022-11-18T04:41:52.791Z,8.80
2022-11-18T04:42:25.582Z,8.90
2022-11-18T04:42:57.414Z,8.80
2022-11-18T04:43:29.321Z,8.80
2022-11-18T04:44:12.780Z,8.80
2022-11-18T04:44:44.722Z,8.80
2022-11-18T04:45:17.751Z,8.80
2022-11-18T04:45:50.983Z,8.80
2022-11-18T04:46:22.849Z,8.80
2022-11-18T04:46:55.953Z,8.80
2022-11-18T04:47:28.778Z,8.80
2022-11-18T04:48:03.775Z,8.80
2022-11-18T04:48:35.933Z,8.80
2022-11-18T04:49:08.310Z,8.80
2022-11-18T04:49:41.163Z,8.80
2022-11-18T04:50:13.115Z,8.80
2022-11-18T04:50:45.052Z,8.90
2022-11-18T04:51:16.909Z,8.80
2022-11-18T04:51:49.944Z,8.90
2022-11-18T04:52:21.766Z,8.90
2022-11-18T04:52:53.629Z,9.00
2022-11-18T04:53:26.489Z,9.00
2022-11-18T04:53:58.380Z,9.00
2022-11-18T04:54:30.345Z,9.00
2022-11-18T04:55:03.193Z,9.10
2022-11-18T04:55:35.906Z,9.10
2022-11-18T04:56:08.215Z,9.10
2022-11-18T04:56:45.773Z,9.20
2022-11-18T04:57:21.903Z,9.20
2022-11-18T04:57:53.809Z,9.20
2022-11-18T04:58:25.746Z,9.20
2022-11-18T04:58:59.674Z,9.20
2022-11-18T04:59:32.525Z,9.20
2022-11-18T05:00:05.680Z,9.20
2022-11-18T05:00:37.597Z,9.10
2022-11-18T05:01:11.815Z,9.20
2022-11-18T05:01:43.882Z,9.20
2022-11-18T05:02:16.764Z,9.20
2022-11-18T05:02:48.778Z,9.10
2022-11-18T05:03:20.598Z,9.10
2022-11-18T05:03:52.497Z,9.10
2022-11-18T05:04:27.078Z,9.10
2022-11-18T05:04:58.941Z,9.10
2022-11-18T05:05:30.761Z,9.10
2022-11-18T05:06:03.686Z,9.10
2022-11-18T05:06:35.895Z,9.10
2022-11-18T05:07:08.792Z,9.10
2022-11-18T05:07:40.794Z,9.10
2022-11-18T05:08:12.676Z,9.10
2022-11-18T05:08:44.508Z,9.10
2022-11-18T05:09:18.488Z,9.10
2022-11-18T05:09:50.427Z,9.10
2022-11-18T05:10:22.330Z,9.10
2022-11-18T05:11:15.600Z,9.10
2022-11-18T05:12:05.980Z,9.00
2022-11-18T05:12:49.984Z,9.10
2022-11-18T05:13:21.806Z,9.00
2022-11-18T05:13:53.984Z,9.00
2022-11-18T05:14:26.540Z,9.10
2022-11-18T05:14:59.355Z,9.10
2022-11-18T05:15:32.064Z,9.00
2022-11-18T05:16:04.118Z,9.20
2022-11-18T05:16:37.375Z,9.10
2022-11-18T05:17:11.037Z,9.10
2022-11-18T05:17:42.867Z,9.10
2022-11-18T05:18:14.706Z,9.10
2022-11-18T05:18:46.563Z,9.10
2022-11-18T05:19:19.789Z,9.10
2022-11-18T05:19:51.969Z,9.10
2022-11-18T05:20:23.819Z,9.10
2022-11-18T05:20:56.590Z,9.10
2022-11-18T05:21:28.474Z,9.10
2022-11-18T05:22:00.593Z,9.10
2022-11-18T05:22:33.396Z,9.10
2022-11-18T05:23:05.331Z,9.10
2022-11-18T05:23:37.225Z,9.10
2022-11-18T05:24:09.141Z,9.10
2022-11-18T05:24:41.914Z,9.10
2022-11-18T05:25:13.849Z,9.10
2022-11-18T05:25:45.698Z,9.00
2022-11-18T05:26:17.551Z,9.00
2022-11-18T05:26:50.669Z,9.00
2022-11-18T05:27:22.523Z,9.00
2022-11-18T05:27:55.345Z,9.00
2022-11-18T05:28:27.211Z,9.00
2022-11-18T05:28:59.272Z,9.00
2022-11-18T05:29:31.189Z,9.00
2022-11-18T05:30:04.410Z,8.90
2022-11-18T05:30:36.201Z,9.00
2022-11-18T05:31:10.894Z,8.90
2022-11-18T05:31:45.000Z,8.90
2022-11-18T05:32:16.854Z,8.90
2022-11-18T05:32:48.641Z,8.90
2022-11-18T05:33:21.490Z,8.90
2022-11-18T05:33:53.443Z,8.80
2022-11-18T05:34:25.492Z,8.90
2022-11-18T05:34:58.495Z,8.80
2022-11-18T05:35:30.333Z,8.80
2022-11-18T05:36:04.460Z,8.80
2022-11-18T05:36:36.324Z,8.80
2022-11-18T05:37:09.160Z,8.90
2022-11-18T05:37:41.005Z,8.90
2022-11-18T05:38:12.880Z,8.90
2022-11-18T05:38:45.741Z,8.80
2022-11-18T05:39:18.756Z,8.80
2022-11-18T05:39:51.736Z,8.90
2022-11-18T05:40:23.547Z,8.90
2022-11-18T05:40:55.387Z,8.90
2022-11-18T05:41:45.508Z,8.80
2022-11-18T05:42:35.924Z,8.90
2022-11-18T05:43:13.045Z,8.90
2022-11-18T05:43:44.863Z,8.90
2022-11-18T05:44:16.887Z,8.80
2022-11-18T05:44:54.662Z,8.80
2022-11-18T05:45:29.790Z,8.80
2022-11-18T05:46:02.346Z,8.80
2022-11-18T05:46:35.134Z,8.80
2022-11-18T05:47:08.325Z,8.80
2022-11-18T05:47:55.051Z,8.80
2022-11-18T05:48:28.057Z,8.80
2022-11-18T05:48:59.932Z,8.90
2022-11-18T05:49:31.792Z,8.80
2022-11-18T05:50:05.080Z,8.90
2022-11-18T05:50:38.165Z,8.90
2022-11-18T05:51:10.000Z,8.90
2022-11-18T05:51:42.857Z,8.90
2022-11-18T05:52:14.662Z,8.90
2022-11-18T05:52:46.495Z,8.90
2022-11-18T05:53:20.441Z,8.90
2022-11-18T05:53:55.768Z,8.90
2022-11-18T05:54:28.080Z,8.90
2022-11-18T05:54:59.919Z,8.90
2022-11-18T05:55:37.572Z,8.90
2022-11-18T05:56:17.147Z,8.80
2022-11-18T05:56:49.235Z,8.80
2022-11-18T05:57:22.020Z,8.80
2022-11-18T05:57:53.948Z,8.80
2022-11-18T05:58:25.963Z,8.80
2022-11-18T05:58:58.767Z,8.80
2022-11-18T05:59:31.298Z,8.80
2022-11-18T06:00:04.666Z,8.80
2022-11-18T06:00:36.831Z,8.80
2022-11-18T06:01:10.107Z,8.70
2022-11-18T06:01:47.753Z,8.70
2022-11-18T06:02:24.179Z,8.70
2022-11-18T06:02:57.746Z,8.80
2022-11-18T06:03:33.111Z,8.70
2022-11-18T06:04:11.233Z,8.70
2022-11-18T06:04:47.412Z,8.70
2022-11-18T06:05:21.302Z,8.70
2022-11-18T06:05:55.216Z,8.70
2022-11-18T06:06:28.392Z,8.70
2022-11-18T06:07:06.063Z,8.70
2022-11-18T06:07:41.296Z,8.70
2022-11-18T06:08:15.966Z,8.70
2022-11-18T06:08:51.512Z,8.70
2022-11-18T06:09:27.881Z,8.70
2022-11-18T06:10:05.467Z,8.60
2022-11-18T06:10:41.565Z,8.60
2022-11-18T06:11:17.077Z,8.60
2022-11-18T06:11:53.441Z,8.60
2022-11-18T06:12:29.253Z,8.60
2022-11-18T06:13:04.988Z,8.70
2022-11-18T06:13:41.543Z,8.60
2022-11-18T06:14:19.535Z,8.60
2022-11-18T06:14:54.873Z,8.60
2022-11-18T06:15:32.133Z,8.60
2022-11-18T06:16:04.514Z,8.50
2022-11-18T06:16:40.985Z,8.50
2022-11-18T06:17:19.350Z,8.50
2022-11-18T06:17:56.713Z,8.50
2022-11-18T06:18:30.363Z,8.50
2022-11-18T06:19:04.384Z,8.50
2022-11-18T06:19:36.363Z,8.50
2022-11-18T06:20:09.866Z,8.50
2022-11-18T06:20:43.202Z,8.50
2022-11-18T06:21:15.182Z,8.50
2022-11-18T06:21:47.221Z,8.50
2022-11-18T06:22:20.369Z,8.50
2022-11-18T06:22:56.101Z,8.50
2022-11-18T06:23:30.750Z,8.50
2022-11-18T06:24:03.841Z,8.50
2022-11-18T06:24:36.175Z,8.50
2022-11-18T06:25:08.461Z,8.50
2022-11-18T06:25:42.204Z,8.50
2022-11-18T06:26:15.560Z,8.40
2022-11-18T06:26:48.355Z,8.50
2022-11-18T06:27:21.421Z,8.50
2022-11-18T06:27:56.489Z,8.50
2022-11-18T06:28:29.721Z,8.50
2022-11-18T06:29:02.594Z,8.50
2022-11-18T06:29:34.747Z,8.50
2022-11-18T06:30:08.816Z,8.50
2022-11-18T06:30:40.921Z,8.50
2022-11-18T06:31:12.979Z,8.50
2022-11-18T06:31:45.757Z,8.50
2022-11-18T06:32:17.670Z,8.50
2022-11-18T06:32:49.479Z,8.50
2022-11-18T06:33:23.597Z,8.50
2022-11-18T06:33:55.410Z,8.50
2022-11-18T06:34:27.258Z,8.60
2022-11-18T06:35:00.128Z,8.60
2022-11-18T06:35:32.006Z,8.60
2022-11-18T06:36:04.144Z,8.60
2022-11-18T06:36:37.013Z,8.60
2022-11-18T06:37:15.976Z,8.50
2022-11-18T06:37:47.836Z,8.50
2022-11-18T06:38:20.664Z,8.50
2022-11-18T06:38:52.622Z,8.50
2022-11-18T06:39:25.621Z,8.50
2022-11-18T06:39:57.508Z,8.70
2022-11-18T06:40:34.500Z,8.60
2022-11-18T06:41:07.849Z,8.50
2022-11-18T06:41:39.732Z,8.60
2022-11-18T06:42:11.656Z,8.60
2022-11-18T06:43:01.937Z,8.50
2022-11-18T06:43:41.351Z,8.50
2022-11-18T06:44:14.668Z,8.50
2022-11-18T06:44:46.597Z,8.50
2022-11-18T06:45:18.786Z,8.50
2022-11-18T06:46:09.185Z,8.50
2022-11-18T06:46:57.372Z,8.40
2022-11-18T06:47:29.245Z,8.40
2022-11-18T06:48:01.316Z,8.40
2022-11-18T06:48:35.495Z,8.40
2022-11-18T06:49:07.344Z,8.40
2022-11-18T06:49:40.201Z,8.50
2022-11-18T06:50:12.263Z,8.40
2022-11-18T06:50:44.139Z,8.40
2022-11-18T06:51:17.690Z,8.50
2022-11-18T06:51:49.635Z,8.40
2022-11-18T06:52:22.926Z,8.50
2022-11-18T06:52:55.172Z,8.50
2022-11-18T06:53:27.194Z,8.50
2022-11-18T06:54:00.157Z,8.50
2022-11-18T06:54:32.065Z,8.50
2022-11-18T06:55:07.085Z,8.50
2022-11-18T06:55:39.967Z,8.50
2022-11-18T06:56:13.660Z,8.50
2022-11-18T06:56:45.636Z,8.50
2022-11-18T06:57:19.086Z,8.50
2022-11-18T06:57:51.095Z,8.50
2022-11-18T06:58:23.008Z,8.50
2022-11-18T06:58:57.547Z,8.50
2022-11-18T06:59:29.411Z,8.50
2022-11-18T07:00:02.927Z,8.50
2022-11-18T07:00:34.969Z,8.60
2022-11-18T07:01:11.393Z,8.60
2022-11-18T07:01:44.333Z,8.60
2022-11-18T07:02:18.804Z,8.60
2022-11-18T07:02:50.619Z,8.60
2022-11-18T07:03:23.420Z,8.60
2022-11-18T07:03:58.668Z,8.50
2022-11-18T07:04:31.541Z,8.50
2022-11-18T07:05:03.827Z,8.60
2022-11-18T07:05:35.669Z,8.50
2022-11-18T07:06:09.888Z,8.60
2022-11-18T07:06:41.822Z,8.60
2022-11-18T07:07:14.787Z,8.60
2022-11-18T07:07:46.776Z,8.60
2022-11-18T07:08:18.783Z,8.70
2022-11-18T07:08:52.541Z,8.60
2022-11-18T07:09:24.603Z,8.60
2022-11-18T07:09:56.481Z,8.60
2022-11-18T07:10:29.342Z,8.60
2022-11-18T07:11:01.265Z,8.60
2022-11-18T07:11:35.271Z,8.60
2022-11-18T07:12:07.222Z,8.60
2022-11-18T07:12:40.030Z,8.60
2022-11-18T07:13:11.904Z,8.60
2022-11-18T07:13:45.088Z,8.60
2022-11-18T07:14:18.149Z,8.60
2022-11-18T07:14:49.992Z,8.50
2022-11-18T07:15:21.844Z,8.50
2022-11-18T07:15:54.693Z,8.60
2022-11-18T07:16:27.526Z,8.60
2022-11-18T07:17:00.329Z,8.50
2022-11-18T07:17:32.181Z,8.50
2022-11-18T07:18:04.181Z,8.50
2022-11-18T07:18:38.571Z,8.50
2022-11-18T07:19:13.731Z,8.50
2022-11-18T07:19:46.706Z,8.50
2022-11-18T07:20:18.528Z,8.50
2022-11-18T07:20:50.342Z,8.50
2022-11-18T07:21:25.190Z,8.50
2022-11-18T07:21:59.371Z,8.50
2022-11-18T07:22:32.164Z,8.60
2022-11-18T07:23:04.047Z,8.60
2022-11-18T07:23:36.045Z,8.60
2022-11-18T07:24:10.566Z,8.60
2022-11-18T07:24:43.365Z,8.60
2022-11-18T07:25:15.257Z,8.60
2022-11-18T07:25:48.159Z,8.60
2022-11-18T07:26:20.694Z,8.60
2022-11-18T07:26:54.274Z,8.60
2022-11-18T07:27:26.164Z,8.60
2022-11-18T07:27:58.967Z,8.70
2022-11-18T07:28:32.275Z,8.60
2022-11-18T07:29:04.427Z,8.70
2022-11-18T07:29:37.308Z,8.70
2022-11-18T07:30:10.353Z,8.60
2022-11-18T07:30:42.282Z,8.70
2022-11-18T07:31:16.660Z,8.60
2022-11-18T07:31:48.550Z,8.70
2022-11-18T07:32:21.412Z,8.70
2022-11-18T07:32:53.261Z,8.60
2022-11-18T07:33:25.121Z,8.60
2022-11-18T07:33:58.141Z,8.60
2022-11-18T07:34:31.317Z,8.60
2022-11-18T07:35:03.230Z,8.60
2022-11-18T07:35:36.033Z,8.60
2022-11-18T07:36:10.532Z,8.60
2022-11-18T07:36:43.554Z,8.60
2022-11-18T07:37:15.365Z,8.70
2022-11-18T07:37:47.207Z,8.60
2022-11-18T07:38:20.013Z,8.60